Flight Track Log - Related Links

Times and Time Zones

All times are in EDT time to prevent confusion due to time zone crossing. See the JBU56 flight status page for this flight to view local times or setup timezone preferences in your user account.


Time Position Orientation Groundspeed Altitude Reporting Facility
EDT Latitude Longitude Course Direction KTS MPH feet Rate Location/Type
Thu 08:46:44 AM 38.9667 -77.5000 78° East 162 186 2,100  Level Potomac TRACON
Thu 08:47:44 AM 39.0167 -77.5000 360° North 202 232 4,600 2,737 Climbing Potomac TRACON
Thu 08:48:38 AM 39.0667 -77.5000 360° North 243 280 7,300 2,842 Climbing Potomac TRACON
Thu 08:49:38 AM 39.1167 -77.4333 46° Northeast 287 330 10,000 1,916 Climbing Potomac TRACON
Thu 08:51:00 AM 39.0462 -76.8567 78° East  Level FlightAware Approximate
Thu 08:51:49 AM 39.1169 -77.1803 90° East 387 445 13,400  Level Washington Center
Thu 08:52:51 AM 39.0436 -77.0758 132° Southeast 408 470 16,100 2,143 Climbing Washington Center
Thu 08:53:55 AM 38.9647 -76.9678 133° Southeast 417 480 17,900 1,824 Climbing Washington Center
Thu 08:54:56 AM 38.9742 -76.8144 85° East 434 499 19,900 2,066 Climbing Washington Center
Thu 08:55:57 AM 39.0181 -76.6736 68° East 429 494 22,100 1,500 Climbing Washington Center
Thu 08:57:00 AM 39.0608 -76.5275 69° East 431 496 23,000 435 Climbing Washington Center
Thu 08:58:01 AM 39.1139 -76.3539 68° East 435 501 23,000  Level Washington Center
Thu 08:59:05 AM 39.1536 -76.2036 71° East 439 505 23,000  Level Washington Center
Thu 09:00:05 AM 39.1725 -76.0444 81° East 449 517 23,000  Level Washington Center
Thu 09:01:09 AM 39.1994 -75.8889 77° East 446 513 23,000 968 Level Washington Center
Thu 09:02:09 AM 39.2733 -75.7717 51° Northeast 421 484 25,000 1,824 Climbing Washington Center
Thu 09:03:14 AM 39.3731 -75.6467 44° Northeast 418 481 26,800 1,524 Climbing Washington Center
Thu 09:04:15 AM 39.4586 -75.5367 45° Northeast 430 495 28,200 1,355 Climbing Washington Center
Thu 09:05:18 AM 39.5436 -75.4250 45° Northeast 435 501 29,600 1,355 Climbing Washington Center
Thu 09:06:19 AM 39.6300 -75.3119 45° Northeast 438 504 31,000 712 Climbing Washington Center
Thu 09:07:16 AM 39.7222 -75.1892 46° Northeast 440 506 31,000  Level New York Center
Thu 09:08:18 AM 39.7975 -75.0750 49° Northeast 455 524 31,000  Level New York Center
Thu 09:09:18 AM 39.8831 -74.9531 48° Northeast 455 524 31,000  Level New York Center
Thu 09:10:17 AM 39.9772 -74.8206 47° Northeast 455 524 31,000  Level New York Center
Thu 09:11:16 AM 40.0539 -74.7111 48° Northeast 455 524 31,000  Level New York Center
Thu 09:12:18 AM 40.1333 -74.5853 50° Northeast 450 518 31,000  Level New York Center
Thu 09:13:17 AM 40.2253 -74.4436 50° Northeast 455 524 31,000  Level New York Center
Thu 09:14:18 AM 40.3061 -74.3172 50° Northeast 455 524 31,000  Level New York Center
Thu 09:15:16 AM 40.3869 -74.1906 50° Northeast 455 524 31,000  Level New York Center
Thu 09:16:17 AM 40.4678 -74.0611 51° Northeast 455 524 31,000  Level New York Center
Thu 09:17:17 AM 40.5483 -73.9364 50° Northeast 455 524 31,000 -212 Level New York Center
Thu 09:19:35 AM 40.7314 -73.6453 50° Northeast 446 513 30,300 -905 Descending Boston Center
Thu 09:20:36 AM 40.8092 -73.5194 51° Northeast 446 513 28,000 -1,623 Descending Boston Center
Thu 09:21:37 AM 40.8861 -73.3983 50° Northeast 436 502 27,000 -492 Descending Boston Center
Thu 09:22:38 AM 40.9664 -73.2844 47° Northeast 429 494 27,000  Level Boston Center
Thu 09:23:39 AM 41.0436 -73.1669 49° Northeast 427 491 27,000 -689 Level Boston Center
Thu 09:24:40 AM 41.1233 -73.0483 48° Northeast 424 488 25,600 -1,721 Descending Boston Center
Thu 09:25:41 AM 41.1961 -72.9406 48° Northeast 409 471 23,500 -1,279 Descending Boston Center
Thu 09:26:42 AM 41.2556 -72.8183 57° Northeast 398 458 23,000 -246 Descending Boston Center
Thu 09:27:43 AM 41.3081 -72.6742 64° Northeast 407 468 23,000  Level Boston Center
Thu 09:28:44 AM 41.3589 -72.5369 64° Northeast 409 471 23,000  Level Boston Center
Thu 09:29:45 AM 41.4086 -72.3994 64° Northeast 410 472 23,000  Level Boston Center
Thu 09:30:46 AM 41.4589 -72.2653 63° Northeast 408 470 23,000  Level Boston Center
Thu 09:31:47 AM 41.5078 -72.1297 64° Northeast 407 468 23,000 -49 Level Boston Center
Thu 09:32:48 AM 41.5619 -71.9800 64° Northeast 407 468 22,900 -541 Descending Boston Center
Thu 09:33:49 AM 41.6044 -71.8353 69° East 417 480 21,900 -1,475 Descending Boston Center
Thu 09:34:50 AM 41.6469 -71.6914 68° East 417 480 19,900 -2,164 Descending Boston Center
Thu 09:35:51 AM 41.6908 -71.5458 68° East 393 452 17,500 -2,066 Descending Boston Center
Thu 09:36:52 AM 41.7317 -71.4133 68° East 362 417 15,700 -1,820 Descending Boston Center
Thu 09:37:53 AM 41.7792 -71.3039 60° Northeast 345 397 13,800 -1,770 Descending Boston Center
Thu 09:38:54 AM 41.8250 -71.1967 60° Northeast 336 387 12,100 -1,475 Descending Boston Center
Thu 09:39:55 AM 41.8692 -71.0953 60° Northeast 319 367 10,800 -1,377 Descending Boston Center
Thu 09:40:56 AM 41.9247 -71.0122 48° Northeast 278 320 9,300 -1,426 Descending Boston Center
Thu 09:41:57 AM 41.9717 -70.9356 51° Northeast 269 310 7,900 -1,426 Descending Boston Center
Thu 09:42:58 AM 41.9989 -70.8453 68° East 261 300 6,400 -927 Descending Boston Center
Thu 09:44:00 AM 42.0208 -70.7633 70° East 259 298 6,000 -780 Descending Boston Center
Thu 09:45:01 AM 42.0439 -70.6733 71° East 258 297 4,800 -984 Descending Boston Center
Thu 09:46:02 AM 42.0928 -70.6431 25° Northeast 245 282 4,000 -393 Descending Boston Center
Thu 09:47:03 AM 42.1267 -70.6872 316° Northwest 188 216 4,000  Level Boston Center
Thu 09:48:04 AM 42.1572 -70.7281 315° West 162 186 4,000  Level Boston Center
Thu 09:49:05 AM 42.1903 -70.7708 316° Northwest 144 166 4,000  Level Boston Center
Thu 09:50:06 AM 42.2181 -70.8086 315° West 143 165 4,000 -390 Level Boston Center
Thu 09:51:08 AM 42.2467 -70.8483 314° West 143 165 3,200 -780 Descending Boston Center
Thu 09:52:09 AM 42.2747 -70.8856 316° Northwest 143 165 2,400 -787 Descending Boston Center
Thu 09:53:10 AM 42.3033 -70.9231 316° Northwest 138 159 1,600 -689 Descending Boston Center
Thu 09:54:11 AM 42.3231 -70.9478 317° Northwest 121 139 1,000 -639 Descending Boston Center
Thu 09:55:12 AM 42.3464 -70.9792 315° West 118 136 300 -393 Descending Boston Center
Thu 09:56:13 AM 42.3692 -71.0114 314° West 118 136 200 -98 Descending Boston Center

Login

Don't have an account? Register now (free) for customized features, flight alerts, and more!